sensor_id;sensor_type;location;lat;lon;timestamp;P1;durP1;ratioP1;P2;durP2;ratioP2
65583;SDS011;62116;43.582;1.470;2023-03-26T00:01:10;9.80;;;1.67;;
65583;SDS011;62116;43.582;1.470;2023-03-26T00:03:38;8.10;;;1.75;;
65583;SDS011;62116;43.582;1.470;2023-03-26T00:06:07;6.15;;;1.70;;
65583;SDS011;62116;43.582;1.470;2023-03-26T00:08:35;6.53;;;1.55;;
65583;SDS011;62116;43.582;1.470;2023-03-26T00:11:02;4.57;;;1.60;;
65583;SDS011;62116;43.582;1.470;2023-03-26T00:13:29;6.88;;;1.92;;
65583;SDS011;62116;43.582;1.470;2023-03-26T00:15:54;7.68;;;1.83;;
65583;SDS011;62116;43.582;1.470;2023-03-26T00:18:20;6.68;;;1.70;;
65583;SDS011;62116;43.582;1.470;2023-03-26T00:20:49;6.95;;;1.70;;
65583;SDS011;62116;43.582;1.470;2023-03-26T00:23:15;8.40;;;1.70;;
65583;SDS011;62116;43.582;1.470;2023-03-26T00:25:41;7.55;;;1.88;;
65583;SDS011;62116;43.582;1.470;2023-03-26T00:28:07;5.20;;;1.80;;
65583;SDS011;62116;43.582;1.470;2023-03-26T00:30:33;7.13;;;1.92;;
65583;SDS011;62116;43.582;1.470;2023-03-26T00:33:05;7.32;;;1.90;;
65583;SDS011;62116;43.582;1.470;2023-03-26T00:35:33;5.13;;;1.60;;
65583;SDS011;62116;43.582;1.470;2023-03-26T00:38:00;6.72;;;1.55;;
65583;SDS011;62116;43.582;1.470;2023-03-26T00:40:25;9.55;;;1.75;;
65583;SDS011;62116;43.582;1.470;2023-03-26T00:42:50;5.63;;;1.58;;
65583;SDS011;62116;43.582;1.470;2023-03-26T00:45:16;9.68;;;1.85;;
65583;SDS011;62116;43.582;1.470;2023-03-26T00:47:45;9.05;;;1.80;;
65583;SDS011;62116;43.582;1.470;2023-03-26T00:50:10;7.93;;;1.63;;
65583;SDS011;62116;43.582;1.470;2023-03-26T00:52:40;8.43;;;2.00;;
65583;SDS011;62116;43.582;1.470;2023-03-26T00:55:07;8.38;;;1.65;;
65583;SDS011;62116;43.582;1.470;2023-03-26T00:57:33;7.85;;;1.70;;
65583;SDS011;62116;43.582;1.470;2023-03-26T00:59:58;5.85;;;1.65;;
65583;SDS011;62116;43.582;1.470;2023-03-26T01:02:24;5.38;;;1.38;;
65583;SDS011;62116;43.582;1.470;2023-03-26T01:04:53;4.85;;;1.73;;
65583;SDS011;62116;43.582;1.470;2023-03-26T01:07:23;6.45;;;1.50;;
65583;SDS011;62116;43.582;1.470;2023-03-26T01:09:53;9.60;;;2.00;;
65583;SDS011;62116;43.582;1.470;2023-03-26T01:12:21;10.52;;;1.83;;
65583;SDS011;62116;43.582;1.470;2023-03-26T01:14:48;9.43;;;1.55;;
65583;SDS011;62116;43.582;1.470;2023-03-26T01:17:16;11.82;;;1.98;;
65583;SDS011;62116;43.582;1.470;2023-03-26T01:20:05;11.00;;;1.77;;
65583;SDS011;62116;43.582;1.470;2023-03-26T01:22:37;8.82;;;1.80;;
65583;SDS011;62116;43.582;1.470;2023-03-26T01:25:06;5.50;;;1.40;;
65583;SDS011;62116;43.582;1.470;2023-03-26T01:30:11;7.13;;;1.60;;
65583;SDS011;62116;43.582;1.470;2023-03-26T01:38:45;8.20;;;1.38;;
65583;SDS011;62116;43.582;1.470;2023-03-26T01:41:31;9.60;;;1.70;;
65583;SDS011;62116;43.582;1.470;2023-03-26T01:44:08;8.02;;;1.52;;
65583;SDS011;62116;43.582;1.470;2023-03-26T01:46:40;5.72;;;1.50;;
65583;SDS011;62116;43.582;1.470;2023-03-26T01:49:07;7.25;;;1.50;;
65583;SDS011;62116;43.582;1.470;2023-03-26T01:51:38;7.07;;;1.60;;
65583;SDS011;62116;43.582;1.470;2023-03-26T01:54:06;5.78;;;1.40;;
65583;SDS011;62116;43.582;1.470;2023-03-26T02:02:23;7.03;;;1.90;;
65583;SDS011;62116;43.582;1.470;2023-03-26T02:04:59;6.85;;;1.60;;
65583;SDS011;62116;43.582;1.470;2023-03-26T02:12:43;7.38;;;2.00;;
65583;SDS011;62116;43.582;1.470;2023-03-26T02:15:09;7.95;;;1.80;;
65583;SDS011;62116;43.582;1.470;2023-03-26T02:17:35;7.40;;;1.90;;
65583;SDS011;62116;43.582;1.470;2023-03-26T02:20:04;7.25;;;1.85;;
65583;SDS011;62116;43.582;1.470;2023-03-26T02:22:34;6.10;;;1.83;;
65583;SDS011;62116;43.582;1.470;2023-03-26T02:25:07;7.82;;;1.90;;
65583;SDS011;62116;43.582;1.470;2023-03-26T02:27:34;6.55;;;1.67;;
65583;SDS011;62116;43.582;1.470;2023-03-26T02:30:01;6.00;;;1.80;;
65583;SDS011;62116;43.582;1.470;2023-03-26T02:32:28;5.90;;;1.85;;
65583;SDS011;62116;43.582;1.470;2023-03-26T02:34:54;6.68;;;1.80;;
65583;SDS011;62116;43.582;1.470;2023-03-26T02:37:19;8.38;;;1.90;;
65583;SDS011;62116;43.582;1.470;2023-03-26T02:39:44;6.63;;;1.80;;
65583;SDS011;62116;43.582;1.470;2023-03-26T02:42:10;7.65;;;1.70;;
65583;SDS011;62116;43.582;1.470;2023-03-26T02:44:35;7.97;;;1.85;;
65583;SDS011;62116;43.582;1.470;2023-03-26T02:47:04;5.38;;;1.40;;
65583;SDS011;62116;43.582;1.470;2023-03-26T02:49:29;7.22;;;1.88;;
65583;SDS011;62116;43.582;1.470;2023-03-26T02:51:55;7.35;;;1.77;;
65583;SDS011;62116;43.582;1.470;2023-03-26T02:54:21;6.45;;;1.80;;
65583;SDS011;62116;43.582;1.470;2023-03-26T02:56:47;3.80;;;1.50;;
65583;SDS011;62116;43.582;1.470;2023-03-26T02:59:12;5.50;;;1.77;;
65583;SDS011;62116;43.582;1.470;2023-03-26T03:01:38;5.80;;;1.60;;
65583;SDS011;62116;43.582;1.470;2023-03-26T03:04:07;6.80;;;1.70;;
65583;SDS011;62116;43.582;1.470;2023-03-26T03:06:36;6.15;;;1.50;;
65583;SDS011;62116;43.582;1.470;2023-03-26T03:09:06;6.50;;;1.75;;
65583;SDS011;62116;43.582;1.470;2023-03-26T03:11:35;5.15;;;1.30;;
65583;SDS011;62116;43.582;1.470;2023-03-26T03:14:02;6.75;;;1.55;;
65583;SDS011;62116;43.582;1.470;2023-03-26T03:16:27;8.07;;;1.40;;
65583;SDS011;62116;43.582;1.470;2023-03-26T03:18:53;7.63;;;1.63;;
65583;SDS011;62116;43.582;1.470;2023-03-26T03:21:20;7.78;;;1.55;;
65583;SDS011;62116;43.582;1.470;2023-03-26T03:23:49;8.15;;;1.50;;
65583;SDS011;62116;43.582;1.470;2023-03-26T03:26:18;5.95;;;1.35;;
65583;SDS011;62116;43.582;1.470;2023-03-26T03:28:46;5.32;;;1.25;;
65583;SDS011;62116;43.582;1.470;2023-03-26T03:31:13;8.05;;;1.40;;
65583;SDS011;62116;43.582;1.470;2023-03-26T03:33:40;7.15;;;1.50;;
65583;SDS011;62116;43.582;1.470;2023-03-26T03:36:07;6.35;;;1.40;;
65583;SDS011;62116;43.582;1.470;2023-03-26T03:38:35;6.70;;;1.50;;
65583;SDS011;62116;43.582;1.470;2023-03-26T03:41:02;6.80;;;1.52;;
65583;SDS011;62116;43.582;1.470;2023-03-26T03:43:27;9.90;;;1.63;;
65583;SDS011;62116;43.582;1.470;2023-03-26T03:45:53;8.50;;;1.50;;
65583;SDS011;62116;43.582;1.470;2023-03-26T03:48:18;7.43;;;1.52;;
65583;SDS011;62116;43.582;1.470;2023-03-26T03:50:43;8.63;;;1.60;;
65583;SDS011;62116;43.582;1.470;2023-03-26T03:53:09;4.82;;;1.33;;
65583;SDS011;62116;43.582;1.470;2023-03-26T03:55:34;6.30;;;1.60;;
65583;SDS011;62116;43.582;1.470;2023-03-26T03:58:02;8.65;;;1.63;;
65583;SDS011;62116;43.582;1.470;2023-03-26T04:00:27;9.50;;;1.70;;
65583;SDS011;62116;43.582;1.470;2023-03-26T04:02:54;6.43;;;1.67;;
65583;SDS011;62116;43.582;1.470;2023-03-26T04:05:20;9.70;;;1.67;;
65583;SDS011;62116;43.582;1.470;2023-03-26T04:07:45;4.32;;;1.30;;
65583;SDS011;62116;43.582;1.470;2023-03-26T04:10:11;7.20;;;1.73;;
65583;SDS011;62116;43.582;1.470;2023-03-26T04:12:39;7.55;;;1.40;;
65583;SDS011;62116;43.582;1.470;2023-03-26T04:15:04;7.40;;;1.42;;
65583;SDS011;62116;43.582;1.470;2023-03-26T04:17:30;5.22;;;1.58;;
65583;SDS011;62116;43.582;1.470;2023-03-26T04:19:55;9.98;;;1.42;;
65583;SDS011;62116;43.582;1.470;2023-03-26T04:22:21;6.55;;;1.50;;
65583;SDS011;62116;43.582;1.470;2023-03-26T04:24:48;5.75;;;1.50;;
65583;SDS011;62116;43.582;1.470;2023-03-26T04:27:15;6.43;;;1.50;;
65583;SDS011;62116;43.582;1.470;2023-03-26T04:29:45;6.77;;;1.30;;
65583;SDS011;62116;43.582;1.470;2023-03-26T04:32:23;7.53;;;1.40;;
65583;SDS011;62116;43.582;1.470;2023-03-26T04:34:54;6.38;;;1.38;;
65583;SDS011;62116;43.582;1.470;2023-03-26T04:37:25;5.43;;;1.38;;
65583;SDS011;62116;43.582;1.470;2023-03-26T04:39:56;6.95;;;1.48;;
65583;SDS011;62116;43.582;1.470;2023-03-26T04:42:21;7.68;;;1.50;;
65583;SDS011;62116;43.582;1.470;2023-03-26T04:44:47;5.80;;;1.23;;
65583;SDS011;62116;43.582;1.470;2023-03-26T04:47:15;4.07;;;1.45;;
65583;SDS011;62116;43.582;1.470;2023-03-26T04:49:42;6.72;;;1.42;;
65583;SDS011;62116;43.582;1.470;2023-03-26T04:52:09;6.05;;;1.50;;
65583;SDS011;62116;43.582;1.470;2023-03-26T04:54:36;5.15;;;1.33;;
65583;SDS011;62116;43.582;1.470;2023-03-26T04:57:02;8.65;;;1.50;;
65583;SDS011;62116;43.582;1.470;2023-03-26T04:59:32;8.15;;;1.50;;
65583;SDS011;62116;43.582;1.470;2023-03-26T05:01:59;6.32;;;1.45;;
65583;SDS011;62116;43.582;1.470;2023-03-26T05:04:26;4.70;;;1.27;;
65583;SDS011;62116;43.582;1.470;2023-03-26T05:06:58;8.15;;;1.45;;
65583;SDS011;62116;43.582;1.470;2023-03-26T05:09:24;6.28;;;1.15;;
65583;SDS011;62116;43.582;1.470;2023-03-26T05:11:50;7.47;;;1.40;;
65583;SDS011;62116;43.582;1.470;2023-03-26T05:14:15;4.82;;;1.20;;
65583;SDS011;62116;43.582;1.470;2023-03-26T05:16:41;5.50;;;1.25;;
65583;SDS011;62116;43.582;1.470;2023-03-26T05:19:08;6.88;;;1.25;;
65583;SDS011;62116;43.582;1.470;2023-03-26T05:21:34;5.47;;;1.10;;
65583;SDS011;62116;43.582;1.470;2023-03-26T05:24:00;4.68;;;1.00;;
65583;SDS011;62116;43.582;1.470;2023-03-26T05:26:26;9.00;;;1.55;;
65583;SDS011;62116;43.582;1.470;2023-03-26T05:28:53;7.25;;;1.10;;
65583;SDS011;62116;43.582;1.470;2023-03-26T05:31:19;5.97;;;1.25;;
65583;SDS011;62116;43.582;1.470;2023-03-26T05:33:48;6.68;;;1.00;;
65583;SDS011;62116;43.582;1.470;2023-03-26T05:36:13;4.53;;;1.10;;
65583;SDS011;62116;43.582;1.470;2023-03-26T05:38:40;5.15;;;1.20;;
65583;SDS011;62116;43.582;1.470;2023-03-26T05:41:11;6.53;;;1.40;;
65583;SDS011;62116;43.582;1.470;2023-03-26T05:43:37;4.05;;;1.00;;
65583;SDS011;62116;43.582;1.470;2023-03-26T05:46:02;5.22;;;0.95;;
65583;SDS011;62116;43.582;1.470;2023-03-26T05:48:28;6.18;;;1.20;;
65583;SDS011;62116;43.582;1.470;2023-03-26T05:50:54;4.45;;;1.00;;
65583;SDS011;62116;43.582;1.470;2023-03-26T05:53:21;4.88;;;0.90;;
65583;SDS011;62116;43.582;1.470;2023-03-26T05:55:48;4.90;;;1.00;;
65583;SDS011;62116;43.582;1.470;2023-03-26T05:58:22;6.47;;;1.20;;
65583;SDS011;62116;43.582;1.470;2023-03-26T06:00:54;6.15;;;1.10;;
65583;SDS011;62116;43.582;1.470;2023-03-26T06:03:29;6.38;;;1.20;;
65583;SDS011;62116;43.582;1.470;2023-03-26T06:05:56;9.02;;;1.02;;
65583;SDS011;62116;43.582;1.470;2023-03-26T06:08:21;6.20;;;1.30;;
65583;SDS011;62116;43.582;1.470;2023-03-26T06:10:47;7.78;;;1.25;;
65583;SDS011;62116;43.582;1.470;2023-03-26T06:13:14;7.15;;;1.00;;
65583;SDS011;62116;43.582;1.470;2023-03-26T06:15:40;9.65;;;1.20;;
65583;SDS011;62116;43.582;1.470;2023-03-26T06:18:06;6.43;;;1.02;;
65583;SDS011;62116;43.582;1.470;2023-03-26T06:20:31;8.27;;;1.50;;
65583;SDS011;62116;43.582;1.470;2023-03-26T06:22:57;6.07;;;1.27;;
65583;SDS011;62116;43.582;1.470;2023-03-26T06:25:22;10.07;;;1.20;;
65583;SDS011;62116;43.582;1.470;2023-03-26T06:27:47;5.68;;;1.20;;
65583;SDS011;62116;43.582;1.470;2023-03-26T06:30:13;8.05;;;0.98;;
65583;SDS011;62116;43.582;1.470;2023-03-26T06:32:39;5.55;;;1.15;;
65583;SDS011;62116;43.582;1.470;2023-03-26T06:35:05;10.32;;;1.20;;
65583;SDS011;62116;43.582;1.470;2023-03-26T06:37:30;8.05;;;1.17;;
65583;SDS011;62116;43.582;1.470;2023-03-26T06:39:56;5.32;;;1.10;;
65583;SDS011;62116;43.582;1.470;2023-03-26T06:42:21;5.63;;;1.30;;
65583;SDS011;62116;43.582;1.470;2023-03-26T06:44:46;6.32;;;1.10;;
65583;SDS011;62116;43.582;1.470;2023-03-26T06:47:12;4.70;;;1.10;;
65583;SDS011;62116;43.582;1.470;2023-03-26T06:49:37;4.60;;;0.95;;
65583;SDS011;62116;43.582;1.470;2023-03-26T06:52:03;6.28;;;1.30;;
65583;SDS011;62116;43.582;1.470;2023-03-26T06:54:29;5.43;;;1.00;;
65583;SDS011;62116;43.582;1.470;2023-03-26T06:56:55;5.05;;;1.00;;
65583;SDS011;62116;43.582;1.470;2023-03-26T06:59:20;3.75;;;0.90;;
65583;SDS011;62116;43.582;1.470;2023-03-26T07:01:46;4.82;;;0.98;;
65583;SDS011;62116;43.582;1.470;2023-03-26T07:04:11;6.68;;;1.00;;
65583;SDS011;62116;43.582;1.470;2023-03-26T07:06:36;5.85;;;1.00;;
65583;SDS011;62116;43.582;1.470;2023-03-26T07:09:02;4.38;;;0.95;;
65583;SDS011;62116;43.582;1.470;2023-03-26T07:11:27;3.67;;;0.80;;
65583;SDS011;62116;43.582;1.470;2023-03-26T07:13:53;4.13;;;0.77;;
65583;SDS011;62116;43.582;1.470;2023-03-26T07:16:20;7.35;;;0.82;;
65583;SDS011;62116;43.582;1.470;2023-03-26T07:18:46;5.15;;;0.85;;
65583;SDS011;62116;43.582;1.470;2023-03-26T07:21:12;2.78;;;0.80;;
65583;SDS011;62116;43.582;1.470;2023-03-26T07:23:38;7.00;;;1.02;;
65583;SDS011;62116;43.582;1.470;2023-03-26T07:26:24;5.03;;;1.00;;
65583;SDS011;62116;43.582;1.470;2023-03-26T07:28:54;8.80;;;0.95;;
65583;SDS011;62116;43.582;1.470;2023-03-26T07:32:15;6.15;;;0.93;;
65583;SDS011;62116;43.582;1.470;2023-03-26T07:37:14;6.57;;;1.15;;
65583;SDS011;62116;43.582;1.470;2023-03-26T07:45:40;6.63;;;1.20;;
65583;SDS011;62116;43.582;1.470;2023-03-26T07:48:10;5.70;;;1.15;;
65583;SDS011;62116;43.582;1.470;2023-03-26T07:50:41;5.30;;;1.10;;
65583;SDS011;62116;43.582;1.470;2023-03-26T07:53:07;5.38;;;1.10;;
65583;SDS011;62116;43.582;1.470;2023-03-26T07:55:32;5.30;;;1.05;;
65583;SDS011;62116;43.582;1.470;2023-03-26T08:01:07;4.30;;;0.90;;
65583;SDS011;62116;43.582;1.470;2023-03-26T08:09:16;8.05;;;1.30;;
65583;SDS011;62116;43.582;1.470;2023-03-26T08:14:46;5.05;;;1.10;;
65583;SDS011;62116;43.582;1.470;2023-03-26T08:22:43;7.60;;;1.33;;
65583;SDS011;62116;43.582;1.470;2023-03-26T08:25:42;6.43;;;1.52;;
65583;SDS011;62116;43.582;1.470;2023-03-26T08:30:57;7.00;;;1.10;;
65583;SDS011;62116;43.582;1.470;2023-03-26T08:33:26;7.07;;;1.30;;
65583;SDS011;62116;43.582;1.470;2023-03-26T08:35:52;9.38;;;1.33;;
65583;SDS011;62116;43.582;1.470;2023-03-26T08:38:18;6.05;;;1.25;;
65583;SDS011;62116;43.582;1.470;2023-03-26T08:57:51;9.80;;;1.48;;
65583;SDS011;62116;43.582;1.470;2023-03-26T09:12:39;8.65;;;1.27;;
65583;SDS011;62116;43.582;1.470;2023-03-26T09:32:01;9.45;;;1.63;;
65583;SDS011;62116;43.582;1.470;2023-03-26T09:37:21;7.38;;;1.50;;
65583;SDS011;62116;43.582;1.470;2023-03-26T09:42:53;5.85;;;1.95;;
65583;SDS011;62116;43.582;1.470;2023-03-26T09:45:50;8.15;;;1.90;;
65583;SDS011;62116;43.582;1.470;2023-03-26T10:02:29;7.57;;;1.88;;
65583;SDS011;62116;43.582;1.470;2023-03-26T10:21:27;12.43;;;1.75;;
65583;SDS011;62116;43.582;1.470;2023-03-26T10:24:00;6.60;;;1.55;;
65583;SDS011;62116;43.582;1.470;2023-03-26T10:32:08;10.98;;;1.88;;
65583;SDS011;62116;43.582;1.470;2023-03-26T10:38:00;10.15;;;1.80;;
65583;SDS011;62116;43.582;1.470;2023-03-26T10:40:57;13.70;;;2.10;;
65583;SDS011;62116;43.582;1.470;2023-03-26T10:52:27;10.82;;;2.03;;
65583;SDS011;62116;43.582;1.470;2023-03-26T11:00:20;11.82;;;1.70;;
65583;SDS011;62116;43.582;1.470;2023-03-26T11:16:32;13.02;;;1.80;;
65583;SDS011;62116;43.582;1.470;2023-03-26T11:19:13;13.38;;;1.95;;
65583;SDS011;62116;43.582;1.470;2023-03-26T11:22:28;12.80;;;2.05;;
65583;SDS011;62116;43.582;1.470;2023-03-26T11:24:55;15.77;;;2.22;;
65583;SDS011;62116;43.582;1.470;2023-03-26T11:32:40;13.18;;;1.92;;
65583;SDS011;62116;43.582;1.470;2023-03-26T11:35:20;13.45;;;2.00;;
65583;SDS011;62116;43.582;1.470;2023-03-26T11:37:54;14.02;;;2.10;;
65583;SDS011;62116;43.582;1.470;2023-03-26T11:40:24;14.43;;;1.98;;
65583;SDS011;62116;43.582;1.470;2023-03-26T11:43:09;14.80;;;2.53;;
65583;SDS011;62116;43.582;1.470;2023-03-26T11:45:37;13.82;;;2.25;;
65583;SDS011;62116;43.582;1.470;2023-03-26T11:48:11;11.70;;;2.08;;
65583;SDS011;62116;43.582;1.470;2023-03-26T11:50:43;16.48;;;2.20;;
65583;SDS011;62116;43.582;1.470;2023-03-26T11:53:12;12.52;;;2.10;;
65583;SDS011;62116;43.582;1.470;2023-03-26T11:55:41;13.98;;;2.00;;
65583;SDS011;62116;43.582;1.470;2023-03-26T12:00:55;12.77;;;2.33;;
65583;SDS011;62116;43.582;1.470;2023-03-26T12:03:21;15.73;;;2.30;;
65583;SDS011;62116;43.582;1.470;2023-03-26T12:05:49;12.95;;;2.10;;
65583;SDS011;62116;43.582;1.470;2023-03-26T12:08:22;12.30;;;2.00;;
65583;SDS011;62116;43.582;1.470;2023-03-26T12:10:58;15.40;;;2.00;;
65583;SDS011;62116;43.582;1.470;2023-03-26T12:16:05;11.70;;;1.90;;
65583;SDS011;62116;43.582;1.470;2023-03-26T12:18:34;13.23;;;2.25;;
65583;SDS011;62116;43.582;1.470;2023-03-26T12:21:09;8.52;;;1.80;;
65583;SDS011;62116;43.582;1.470;2023-03-26T12:26:35;11.35;;;2.15;;
65583;SDS011;62116;43.582;1.470;2023-03-26T12:29:14;12.20;;;1.90;;
65583;SDS011;62116;43.582;1.470;2023-03-26T12:34:14;12.07;;;2.15;;
65583;SDS011;62116;43.582;1.470;2023-03-26T12:36:49;9.05;;;1.75;;
65583;SDS011;62116;43.582;1.470;2023-03-26T12:39:36;12.18;;;2.20;;
65583;SDS011;62116;43.582;1.470;2023-03-26T12:42:03;8.50;;;1.70;;
65583;SDS011;62116;43.582;1.470;2023-03-26T12:44:35;10.93;;;1.90;;
65583;SDS011;62116;43.582;1.470;2023-03-26T12:47:27;8.73;;;1.85;;
65583;SDS011;62116;43.582;1.470;2023-03-26T12:49:57;8.45;;;1.48;;
65583;SDS011;62116;43.582;1.470;2023-03-26T12:52:26;11.20;;;1.50;;
65583;SDS011;62116;43.582;1.470;2023-03-26T13:12:53;10.23;;;1.55;;
65583;SDS011;62116;43.582;1.470;2023-03-26T13:15:35;11.82;;;1.45;;
65583;SDS011;62116;43.582;1.470;2023-03-26T13:18:20;8.38;;;1.70;;
65583;SDS011;62116;43.582;1.470;2023-03-26T13:27:08;8.95;;;1.60;;
65583;SDS011;62116;43.582;1.470;2023-03-26T13:32:49;5.93;;;1.13;;
65583;SDS011;62116;43.582;1.470;2023-03-26T13:35:30;7.57;;;1.10;;
65583;SDS011;62116;43.582;1.470;2023-03-26T13:38:12;5.65;;;1.20;;
65583;SDS011;62116;43.582;1.470;2023-03-26T13:48:46;8.32;;;1.30;;
65583;SDS011;62116;43.582;1.470;2023-03-26T13:51:22;8.05;;;1.42;;
65583;SDS011;62116;43.582;1.470;2023-03-26T13:53:51;7.03;;;1.38;;
65583;SDS011;62116;43.582;1.470;2023-03-26T13:56:23;6.85;;;1.30;;
65583;SDS011;62116;43.582;1.470;2023-03-26T13:58:58;10.65;;;1.92;;
65583;SDS011;62116;43.582;1.470;2023-03-26T14:01:29;8.52;;;1.40;;
65583;SDS011;62116;43.582;1.470;2023-03-26T14:06:39;12.27;;;1.38;;
65583;SDS011;62116;43.582;1.470;2023-03-26T14:09:28;8.48;;;1.00;;
65583;SDS011;62116;43.582;1.470;2023-03-26T14:14:30;7.22;;;1.33;;
65583;SDS011;62116;43.582;1.470;2023-03-26T14:17:24;9.88;;;1.30;;
65583;SDS011;62116;43.582;1.470;2023-03-26T14:36:36;8.30;;;1.50;;
65583;SDS011;62116;43.582;1.470;2023-03-26T14:42:01;8.80;;;1.25;;
65583;SDS011;62116;43.582;1.470;2023-03-26T14:44:47;8.27;;;1.27;;
65583;SDS011;62116;43.582;1.470;2023-03-26T14:47:30;9.77;;;1.40;;
65583;SDS011;62116;43.582;1.470;2023-03-26T15:06:32;11.45;;;1.73;;
65583;SDS011;62116;43.582;1.470;2023-03-26T15:34:28;7.13;;;1.25;;
65583;SDS011;62116;43.582;1.470;2023-03-26T15:37:11;7.15;;;1.08;;
65583;SDS011;62116;43.582;1.470;2023-03-26T15:42:52;7.25;;;1.17;;
65583;SDS011;62116;43.582;1.470;2023-03-26T15:45:35;5.43;;;1.20;;
65583;SDS011;62116;43.582;1.470;2023-03-26T15:58:57;6.22;;;1.20;;
65583;SDS011;62116;43.582;1.470;2023-03-26T16:07:33;5.75;;;1.25;;
65583;SDS011;62116;43.582;1.470;2023-03-26T16:18:39;6.05;;;1.30;;
65583;SDS011;62116;43.582;1.470;2023-03-26T16:24:39;6.95;;;1.35;;
65583;SDS011;62116;43.582;1.470;2023-03-26T16:32:09;8.80;;;1.30;;
65583;SDS011;62116;43.582;1.470;2023-03-26T16:48:58;7.82;;;1.48;;
65583;SDS011;62116;43.582;1.470;2023-03-26T17:05:22;11.45;;;1.58;;
65583;SDS011;62116;43.582;1.470;2023-03-26T17:08:03;10.40;;;1.40;;
65583;SDS011;62116;43.582;1.470;2023-03-26T17:14:02;7.32;;;1.38;;
65583;SDS011;62116;43.582;1.470;2023-03-26T17:16:40;9.77;;;1.83;;
65583;SDS011;62116;43.582;1.470;2023-03-26T17:24:49;7.78;;;1.27;;
65583;SDS011;62116;43.582;1.470;2023-03-26T17:40:44;7.55;;;1.38;;
65583;SDS011;62116;43.582;1.470;2023-03-26T17:43:30;9.18;;;1.42;;
65583;SDS011;62116;43.582;1.470;2023-03-26T17:54:21;9.70;;;1.90;;
65583;SDS011;62116;43.582;1.470;2023-03-26T17:56:51;8.77;;;1.95;;
65583;SDS011;62116;43.582;1.470;2023-03-26T17:59:19;12.95;;;1.70;;
65583;SDS011;62116;43.582;1.470;2023-03-26T18:02:00;8.30;;;1.85;;
65583;SDS011;62116;43.582;1.470;2023-03-26T18:04:39;11.27;;;1.58;;
65583;SDS011;62116;43.582;1.470;2023-03-26T18:15:35;10.13;;;2.00;;
65583;SDS011;62116;43.582;1.470;2023-03-26T18:18:24;13.60;;;2.58;;
65583;SDS011;62116;43.582;1.470;2023-03-26T18:20:51;10.95;;;2.17;;
65583;SDS011;62116;43.582;1.470;2023-03-26T18:25:55;12.10;;;2.30;;
65583;SDS011;62116;43.582;1.470;2023-03-26T18:28:33;18.05;;;2.58;;
65583;SDS011;62116;43.582;1.470;2023-03-26T18:31:14;15.43;;;2.30;;
65583;SDS011;62116;43.582;1.470;2023-03-26T18:33:43;12.90;;;2.30;;
65583;SDS011;62116;43.582;1.470;2023-03-26T18:36:10;13.35;;;2.08;;
65583;SDS011;62116;43.582;1.470;2023-03-26T18:38:37;13.15;;;2.25;;
65583;SDS011;62116;43.582;1.470;2023-03-26T18:41:03;11.55;;;2.08;;
65583;SDS011;62116;43.582;1.470;2023-03-26T18:43:31;13.65;;;1.90;;
65583;SDS011;62116;43.582;1.470;2023-03-26T18:45:58;12.70;;;2.10;;
65583;SDS011;62116;43.582;1.470;2023-03-26T18:48:24;12.40;;;1.85;;
65583;SDS011;62116;43.582;1.470;2023-03-26T18:50:53;13.00;;;2.13;;
65583;SDS011;62116;43.582;1.470;2023-03-26T18:53:29;10.90;;;1.73;;
65583;SDS011;62116;43.582;1.470;2023-03-26T18:56:23;8.90;;;1.70;;
65583;SDS011;62116;43.582;1.470;2023-03-26T18:58:52;7.38;;;1.58;;
65583;SDS011;62116;43.582;1.470;2023-03-26T19:01:21;9.23;;;2.08;;
65583;SDS011;62116;43.582;1.470;2023-03-26T19:03:49;12.23;;;2.40;;
65583;SDS011;62116;43.582;1.470;2023-03-26T19:06:17;9.02;;;1.75;;
65583;SDS011;62116;43.582;1.470;2023-03-26T19:08:44;15.15;;;2.08;;
65583;SDS011;62116;43.582;1.470;2023-03-26T19:11:11;11.93;;;2.05;;
65583;SDS011;62116;43.582;1.470;2023-03-26T19:13:41;9.45;;;1.75;;
65583;SDS011;62116;43.582;1.470;2023-03-26T19:16:20;9.15;;;1.70;;
65583;SDS011;62116;43.582;1.470;2023-03-26T19:18:48;9.25;;;1.98;;
65583;SDS011;62116;43.582;1.470;2023-03-26T19:21:14;8.65;;;1.70;;
65583;SDS011;62116;43.582;1.470;2023-03-26T19:23:42;10.27;;;1.80;;
65583;SDS011;62116;43.582;1.470;2023-03-26T19:26:09;6.75;;;1.50;;
65583;SDS011;62116;43.582;1.470;2023-03-26T19:28:37;8.20;;;1.70;;
65583;SDS011;62116;43.582;1.470;2023-03-26T19:31:07;9.97;;;1.40;;
65583;SDS011;62116;43.582;1.470;2023-03-26T19:33:36;6.85;;;1.27;;
65583;SDS011;62116;43.582;1.470;2023-03-26T19:36:12;8.55;;;1.33;;
65583;SDS011;62116;43.582;1.470;2023-03-26T19:38:49;9.02;;;1.75;;
65583;SDS011;62116;43.582;1.470;2023-03-26T19:41:26;12.32;;;1.80;;
65583;SDS011;62116;43.582;1.470;2023-03-26T19:43:57;8.70;;;1.60;;
65583;SDS011;62116;43.582;1.470;2023-03-26T19:46:25;6.72;;;1.30;;
65583;SDS011;62116;43.582;1.470;2023-03-26T19:48:53;9.52;;;1.50;;
65583;SDS011;62116;43.582;1.470;2023-03-26T19:53:52;8.82;;;1.60;;
65583;SDS011;62116;43.582;1.470;2023-03-26T19:56:19;9.10;;;1.58;;
65583;SDS011;62116;43.582;1.470;2023-03-26T19:58:46;8.43;;;1.48;;
65583;SDS011;62116;43.582;1.470;2023-03-26T20:03:49;9.98;;;1.70;;
65583;SDS011;62116;43.582;1.470;2023-03-26T20:06:20;7.50;;;1.50;;
65583;SDS011;62116;43.582;1.470;2023-03-26T20:08:47;10.93;;;2.28;;
65583;SDS011;62116;43.582;1.470;2023-03-26T20:11:19;10.57;;;1.65;;
65583;SDS011;62116;43.582;1.470;2023-03-26T20:13:46;11.80;;;1.65;;
65583;SDS011;62116;43.582;1.470;2023-03-26T20:16:28;10.48;;;1.65;;
65583;SDS011;62116;43.582;1.470;2023-03-26T20:18:55;6.45;;;1.40;;
65583;SDS011;62116;43.582;1.470;2023-03-26T20:21:23;7.57;;;1.55;;
65583;SDS011;62116;43.582;1.470;2023-03-26T20:23:49;9.20;;;1.60;;
65583;SDS011;62116;43.582;1.470;2023-03-26T20:26:19;7.22;;;1.48;;
65583;SDS011;62116;43.582;1.470;2023-03-26T20:28:46;11.98;;;1.83;;
65583;SDS011;62116;43.582;1.470;2023-03-26T20:31:19;8.50;;;1.63;;
65583;SDS011;62116;43.582;1.470;2023-03-26T20:33:50;7.28;;;1.40;;
65583;SDS011;62116;43.582;1.470;2023-03-26T20:36:16;9.68;;;1.55;;
65583;SDS011;62116;43.582;1.470;2023-03-26T20:38:44;11.93;;;2.08;;
65583;SDS011;62116;43.582;1.470;2023-03-26T20:41:22;10.07;;;1.63;;
65583;SDS011;62116;43.582;1.470;2023-03-26T20:43:51;9.02;;;1.90;;
65583;SDS011;62116;43.582;1.470;2023-03-26T20:46:18;13.20;;;1.70;;
65583;SDS011;62116;43.582;1.470;2023-03-26T20:48:45;12.02;;;2.13;;
65583;SDS011;62116;43.582;1.470;2023-03-26T20:51:12;12.48;;;1.88;;
65583;SDS011;62116;43.582;1.470;2023-03-26T20:53:42;11.93;;;1.70;;
65583;SDS011;62116;43.582;1.470;2023-03-26T20:56:10;13.48;;;2.08;;
65583;SDS011;62116;43.582;1.470;2023-03-26T20:58:41;15.02;;;2.33;;
65583;SDS011;62116;43.582;1.470;2023-03-26T21:01:08;9.60;;;1.75;;
65583;SDS011;62116;43.582;1.470;2023-03-26T21:03:35;15.18;;;2.22;;
65583;SDS011;62116;43.582;1.470;2023-03-26T21:06:02;15.48;;;2.42;;
65583;SDS011;62116;43.582;1.470;2023-03-26T21:08:29;11.77;;;1.90;;
65583;SDS011;62116;43.582;1.470;2023-03-26T21:10:58;16.00;;;1.92;;
65583;SDS011;62116;43.582;1.470;2023-03-26T21:13:36;15.07;;;2.20;;
65583;SDS011;62116;43.582;1.470;2023-03-26T21:16:14;15.68;;;2.38;;
65583;SDS011;62116;43.582;1.470;2023-03-26T21:18:39;12.75;;;2.60;;
65583;SDS011;62116;43.582;1.470;2023-03-26T21:24:00;14.90;;;2.25;;
65583;SDS011;62116;43.582;1.470;2023-03-26T21:26:48;12.63;;;2.15;;
65583;SDS011;62116;43.582;1.470;2023-03-26T21:29:21;11.43;;;1.90;;
65583;SDS011;62116;43.582;1.470;2023-03-26T21:31:47;11.40;;;3.00;;
65583;SDS011;62116;43.582;1.470;2023-03-26T21:34:13;9.73;;;1.75;;
65583;SDS011;62116;43.582;1.470;2023-03-26T21:36:39;10.02;;;1.77;;
65583;SDS011;62116;43.582;1.470;2023-03-26T21:39:05;10.88;;;1.73;;
65583;SDS011;62116;43.582;1.470;2023-03-26T21:41:32;9.95;;;1.80;;